Weather at Millville Municipal Airport

Public forecast

Using degrees Fahrenheit for public forecast. Weather courtesy of forecast.io.

Current aviation weather report (METAR) for Millville Municipal Airport

Retrieved 2020/09/19 13:54 UTC (1 hour ago):

KMIV 191354Z AUTO 02012G22KT 10SM FEW001 13/01 A3031 RMK AO2 SLP263 T01280006

Aviation forecast (TAF) for Millville Municipal Airport

Retrieved 2020/09/19 12:22 UTC (3 hours ago):

TAF KMIV 191120Z 1912/2012 01010KT P6SM SKC FM191300 01010G18KT P6SM SKC FM191900 04009KT P6SM SKC FM200000 VRB04KT P6SM SKC